createdAt,value
2023-01-02T00:00:49.098Z,4.32
2023-01-02T00:01:50.686Z,4.17
2023-01-02T00:02:52.525Z,4.04
2023-01-02T00:03:56.712Z,4.01
2023-01-02T00:04:58.432Z,4.02
2023-01-02T00:06:03.591Z,4.01
2023-01-02T00:07:05.142Z,3.89
2023-01-02T00:08:06.741Z,3.84
2023-01-02T00:09:08.717Z,3.83
2023-01-02T00:10:10.294Z,3.80
2023-01-02T00:11:11.848Z,3.77
2023-01-02T00:12:13.406Z,3.75
2023-01-02T00:13:14.930Z,3.84
2023-01-02T00:14:16.505Z,3.90
2023-01-02T00:15:18.177Z,3.96
2023-01-02T00:16:19.838Z,3.99
2023-01-02T00:17:21.485Z,4.03
2023-01-02T00:18:23.031Z,4.08
2023-01-02T00:19:24.598Z,4.12
2023-01-02T00:20:26.108Z,4.15
2023-01-02T00:21:27.626Z,4.17
2023-01-02T00:22:29.119Z,4.19
2023-01-02T00:23:31.420Z,4.17
2023-01-02T00:24:32.982Z,4.15
2023-01-02T00:25:35.028Z,4.15
2023-01-02T00:26:36.651Z,4.17
2023-01-02T00:27:38.207Z,4.17
2023-01-02T00:28:39.819Z,4.22
2023-01-02T00:29:41.365Z,4.25
2023-01-02T00:30:42.937Z,4.27
2023-01-02T00:31:44.528Z,4.29
2023-01-02T00:32:46.032Z,4.30
2023-01-02T00:33:47.607Z,4.28
2023-01-02T00:34:49.159Z,4.26
2023-01-02T00:35:50.706Z,4.27
2023-01-02T00:36:52.292Z,4.24
2023-01-02T00:37:53.821Z,4.26
2023-01-02T00:38:56.481Z,4.27
2023-01-02T00:39:58.018Z,4.24
2023-01-02T00:41:00.192Z,4.22
2023-01-02T00:42:01.701Z,4.21
2023-01-02T00:43:03.749Z,4.25
2023-01-02T00:44:05.340Z,4.27
2023-01-02T00:45:07.946Z,4.31
2023-01-02T00:46:11.868Z,4.32
2023-01-02T00:47:13.630Z,4.35
2023-01-02T00:48:15.153Z,4.38
2023-01-02T00:49:16.719Z,4.40
2023-01-02T00:50:18.320Z,4.43
2023-01-02T00:51:19.933Z,4.45
2023-01-02T00:52:21.501Z,4.46
2023-01-02T00:53:23.114Z,4.49
2023-01-02T00:54:24.715Z,4.51
2023-01-02T00:55:26.212Z,4.55
2023-01-02T00:56:27.762Z,4.57
2023-01-02T00:57:29.297Z,4.57
2023-01-02T00:58:30.835Z,4.58
2023-01-02T00:59:32.392Z,4.59
2023-01-02T01:00:34.008Z,4.60
2023-01-02T01:01:35.941Z,4.61
2023-01-02T01:02:37.777Z,4.65
2023-01-02T01:03:39.477Z,4.66
2023-01-02T01:04:41.015Z,4.67
2023-01-02T01:05:42.681Z,4.69
2023-01-02T01:06:44.205Z,4.71
2023-01-02T01:07:45.813Z,4.71
2023-01-02T01:08:47.340Z,4.71
2023-01-02T01:09:48.852Z,4.70
2023-01-02T01:10:51.861Z,4.68
2023-01-02T01:11:53.510Z,4.68
2023-01-02T01:12:55.084Z,4.68
2023-01-02T01:13:56.651Z,4.67
2023-01-02T01:14:58.197Z,4.65
2023-01-02T01:16:17.431Z,4.65
2023-01-02T01:17:19.200Z,4.65
2023-01-02T01:18:20.761Z,4.64
2023-01-02T01:19:22.291Z,4.65
2023-01-02T01:20:23.940Z,4.62
2023-01-02T01:21:25.586Z,4.60
2023-01-02T01:22:27.175Z,4.60
2023-01-02T01:23:28.694Z,4.60
2023-01-02T01:24:30.274Z,4.58
2023-01-02T01:25:31.797Z,4.47
2023-01-02T01:26:33.458Z,4.37
2023-01-02T01:27:35.005Z,4.32
2023-01-02T01:28:37.498Z,4.26
2023-01-02T01:29:39.087Z,4.20
2023-01-02T01:30:40.644Z,4.18
2023-01-02T01:31:42.309Z,4.18
2023-01-02T01:32:43.837Z,4.18
2023-01-02T01:33:45.742Z,4.16
2023-01-02T01:34:47.702Z,4.14
2023-01-02T01:35:49.223Z,4.08
2023-01-02T01:36:50.746Z,4.05
2023-01-02T01:37:52.286Z,4.05
2023-01-02T01:38:53.833Z,4.04
2023-01-02T01:39:56.889Z,4.01
2023-01-02T01:40:59.044Z,4.00
2023-01-02T01:42:01.888Z,3.96
2023-01-02T01:43:03.404Z,3.92
2023-01-02T01:44:42.897Z,3.93
2023-01-02T01:45:44.962Z,3.91
2023-01-02T01:46:47.796Z,3.88
2023-01-02T01:47:54.318Z,3.90
2023-01-02T01:49:17.690Z,3.90
2023-01-02T01:50:24.465Z,3.82
2023-01-02T01:51:29.493Z,3.83
2023-01-02T01:52:33.248Z,3.79
2023-01-02T01:53:35.393Z,3.80
2023-01-02T01:54:46.529Z,3.85
2023-01-02T01:55:56.205Z,3.90
2023-01-02T01:57:06.716Z,3.94
2023-01-02T01:58:11.566Z,3.97
2023-01-02T01:59:13.687Z,4.01
2023-01-02T02:00:16.108Z,4.03
2023-01-02T02:01:18.185Z,4.06
2023-01-02T02:02:22.693Z,4.08
2023-01-02T02:03:28.630Z,4.08
2023-01-02T02:04:30.289Z,4.14
2023-01-02T02:05:32.533Z,4.17
2023-01-02T02:06:34.072Z,4.14
2023-01-02T02:07:40.529Z,4.04
2023-01-02T02:08:56.792Z,3.98
2023-01-02T02:10:07.928Z,3.81
2023-01-02T02:11:10.229Z,3.68
2023-01-02T02:12:12.924Z,3.63
2023-01-02T02:13:14.868Z,3.58
2023-01-02T02:14:16.599Z,3.47
2023-01-02T02:15:21.260Z,3.46
2023-01-02T02:16:36.054Z,3.36
2023-01-02T02:18:09.528Z,3.30
2023-01-02T02:19:48.212Z,3.25
2023-01-02T02:21:11.439Z,3.12
2023-01-02T02:22:50.301Z,3.03
2023-01-02T02:24:07.089Z,2.85
2023-01-02T02:25:23.973Z,2.70
2023-01-02T02:26:25.457Z,2.58
2023-01-02T02:27:51.114Z,2.48
2023-01-02T02:29:22.464Z,2.31
2023-01-02T02:30:40.606Z,2.24
2023-01-02T02:31:57.659Z,2.19
2023-01-02T02:33:04.993Z,2.14
2023-01-02T02:34:21.441Z,2.10
2023-01-02T02:35:43.818Z,1.98
2023-01-02T02:37:03.978Z,1.87
2023-01-02T02:38:13.951Z,1.80
2023-01-02T02:39:28.419Z,1.74
2023-01-02T02:40:49.872Z,1.73
2023-01-02T02:42:16.914Z,1.68
2023-01-02T02:43:51.565Z,1.63
2023-01-02T02:45:08.155Z,1.60
2023-01-02T02:46:28.200Z,1.58
2023-01-02T02:47:45.477Z,1.57
2023-01-02T02:49:21.485Z,1.57
2023-01-02T02:50:32.714Z,1.63
2023-01-02T02:51:39.909Z,1.65
2023-01-02T02:52:45.276Z,1.69
2023-01-02T02:53:56.082Z,1.73
2023-01-02T02:55:04.744Z,1.66
2023-01-02T02:56:09.592Z,1.67
2023-01-02T02:57:12.846Z,1.75
2023-01-02T02:58:15.746Z,1.85
2023-01-02T02:59:18.653Z,1.95
2023-01-02T03:00:23.213Z,2.00
2023-01-02T03:01:30.536Z,2.06
2023-01-02T03:02:32.832Z,2.11
2023-01-02T03:03:34.806Z,2.08
2023-01-02T03:04:36.330Z,2.08
2023-01-02T03:05:40.679Z,2.12
2023-01-02T03:07:08.644Z,2.21
2023-01-02T03:08:20.768Z,2.32
2023-01-02T03:09:38.604Z,2.40
2023-01-02T03:10:56.806Z,2.41
2023-01-02T03:12:16.703Z,2.38
2023-01-02T03:13:27.349Z,2.44
2023-01-02T03:15:18.231Z,2.55
2023-01-02T03:16:41.763Z,2.61
2023-01-02T03:18:03.710Z,2.65
2023-01-02T03:19:07.336Z,2.61
2023-01-02T03:20:13.157Z,2.62
2023-01-02T03:21:31.573Z,2.64
2023-01-02T03:22:38.100Z,2.66
2023-01-02T03:23:44.843Z,2.73
2023-01-02T03:24:50.573Z,2.85
2023-01-02T03:25:53.391Z,2.89
2023-01-02T03:27:09.558Z,2.95
2023-01-02T03:28:14.685Z,3.02
2023-01-02T03:29:21.044Z,3.01
2023-01-02T03:30:23.353Z,3.01
2023-01-02T03:31:27.854Z,3.06
2023-01-02T03:32:34.020Z,3.06
2023-01-02T03:33:42.468Z,3.10
2023-01-02T03:34:47.144Z,3.14
2023-01-02T03:35:52.681Z,3.17
2023-01-02T03:36:59.703Z,3.21
2023-01-02T03:38:04.198Z,3.23
2023-01-02T03:39:13.163Z,3.24
2023-01-02T03:40:39.313Z,3.25
2023-01-02T03:41:55.664Z,3.28
2023-01-02T03:43:13.727Z,3.16
2023-01-02T03:44:16.994Z,3.03
2023-01-02T03:45:24.774Z,3.00
2023-01-02T03:46:33.529Z,3.03
2023-01-02T03:47:59.332Z,3.09
2023-01-02T03:49:04.829Z,3.10
2023-01-02T03:50:14.347Z,3.10
2023-01-02T03:51:16.097Z,3.13
2023-01-02T03:52:21.133Z,3.15
2023-01-02T03:53:28.976Z,3.18
2023-01-02T03:54:31.173Z,3.20
2023-01-02T03:55:38.093Z,3.21
2023-01-02T03:57:01.006Z,3.23
2023-01-02T03:58:48.883Z,3.27
2023-01-02T04:00:06.524Z,3.24
2023-01-02T04:01:12.683Z,3.24
2023-01-02T04:02:14.438Z,3.05
2023-01-02T04:03:23.280Z,2.97
2023-01-02T04:04:50.878Z,2.95
2023-01-02T04:06:00.997Z,2.92
2023-01-02T04:07:07.305Z,2.78
2023-01-02T04:08:16.762Z,2.71
2023-01-02T04:09:25.257Z,2.60
2023-01-02T04:10:29.329Z,2.48
2023-01-02T04:11:33.999Z,2.54
2023-01-02T04:12:39.229Z,2.66
2023-01-02T04:13:47.693Z,2.75
2023-01-02T04:15:02.754Z,2.84
2023-01-02T04:16:08.278Z,2.78
2023-01-02T04:17:12.326Z,2.67
2023-01-02T04:18:21.693Z,2.60
2023-01-02T04:19:35.281Z,2.68
2023-01-02T04:20:42.051Z,2.77
2023-01-02T04:21:48.857Z,2.83
2023-01-02T04:22:57.018Z,2.88
2023-01-02T04:24:10.223Z,2.87
2023-01-02T04:25:15.207Z,2.80
2023-01-02T04:26:34.080Z,2.69
2023-01-02T04:27:40.957Z,2.54
2023-01-02T04:28:42.763Z,2.61
2023-01-02T04:29:44.410Z,2.64
2023-01-02T04:30:54.898Z,2.70
2023-01-02T04:32:03.796Z,2.71
2023-01-02T04:33:08.739Z,2.72
2023-01-02T04:34:15.150Z,2.67
2023-01-02T04:35:20.545Z,2.57
2023-01-02T04:36:22.725Z,2.64
2023-01-02T04:37:27.588Z,2.66
2023-01-02T04:38:29.145Z,2.71
2023-01-02T04:39:31.357Z,2.71
2023-01-02T04:40:36.666Z,2.56
2023-01-02T04:41:39.400Z,2.48
2023-01-02T04:42:40.978Z,2.37
2023-01-02T04:43:42.579Z,2.32
2023-01-02T04:44:44.144Z,2.31
2023-01-02T04:45:49.652Z,2.38
2023-01-02T04:46:51.206Z,2.45
2023-01-02T04:47:52.732Z,2.47
2023-01-02T04:48:55.322Z,2.47
2023-01-02T04:49:56.912Z,2.53
2023-01-02T04:50:58.464Z,2.61
2023-01-02T04:52:00.027Z,2.66
2023-01-02T04:53:01.641Z,2.69
2023-01-02T04:54:03.255Z,2.76
2023-01-02T04:55:08.370Z,2.81
2023-01-02T04:56:09.988Z,2.84
2023-01-02T04:57:11.559Z,2.84
2023-01-02T04:58:13.481Z,2.87
2023-01-02T04:59:15.018Z,2.98
2023-01-02T05:00:16.859Z,3.05
2023-01-02T05:01:20.633Z,3.15
2023-01-02T05:02:22.360Z,3.22
2023-01-02T05:03:24.155Z,3.27
2023-01-02T05:04:25.755Z,3.28
2023-01-02T05:05:27.279Z,3.31
2023-01-02T05:06:28.800Z,3.35
2023-01-02T05:07:30.358Z,3.40
2023-01-02T05:08:31.954Z,3.46
2023-01-02T05:09:33.489Z,3.48
2023-01-02T05:10:35.009Z,3.44
2023-01-02T05:11:36.553Z,3.42
2023-01-02T05:12:39.536Z,3.40
2023-01-02T05:13:41.713Z,3.40
2023-01-02T05:14:43.279Z,3.40
2023-01-02T05:15:44.825Z,3.40
2023-01-02T05:16:46.374Z,3.39
2023-01-02T05:17:47.915Z,3.37
2023-01-02T05:18:49.502Z,3.38
2023-01-02T05:19:51.106Z,3.41
2023-01-02T05:20:52.645Z,3.42
2023-01-02T05:22:12.729Z,3.43
2023-01-02T05:23:32.550Z,3.46
2023-01-02T05:24:34.080Z,3.48
2023-01-02T05:25:36.444Z,3.50
2023-01-02T05:26:37.970Z,3.52
2023-01-02T05:27:39.583Z,3.60
2023-01-02T05:28:41.481Z,3.61
2023-01-02T05:29:43.080Z,3.51
2023-01-02T05:30:44.682Z,3.49
2023-01-02T05:31:46.677Z,3.50
2023-01-02T05:32:48.580Z,3.52
2023-01-02T05:33:53.482Z,3.51
2023-01-02T05:34:54.989Z,3.47
2023-01-02T05:35:56.512Z,3.38
2023-01-02T05:36:58.113Z,3.37
2023-01-02T05:37:59.740Z,3.38
2023-01-02T05:39:01.713Z,3.37
2023-01-02T05:40:03.944Z,3.37
2023-01-02T05:41:07.289Z,3.38
2023-01-02T05:42:08.812Z,3.37
2023-01-02T05:43:10.367Z,3.23
2023-01-02T05:44:11.941Z,3.11
2023-01-02T05:45:13.442Z,3.06
2023-01-02T05:46:17.420Z,3.09
2023-01-02T05:47:19.101Z,3.11
2023-01-02T05:48:20.689Z,3.18
2023-01-02T05:49:22.269Z,3.24
2023-01-02T05:50:23.824Z,3.27
2023-01-02T05:51:25.380Z,3.24
2023-01-02T05:52:26.957Z,3.21
2023-01-02T05:53:28.840Z,3.16
2023-01-02T05:54:30.497Z,3.14
2023-01-02T05:55:32.016Z,3.13
2023-01-02T05:56:33.573Z,3.12
2023-01-02T05:57:35.553Z,3.14
2023-01-02T05:58:39.536Z,3.12
2023-01-02T05:59:41.041Z,3.13
2023-01-02T06:00:42.597Z,3.17
2023-01-02T06:01:44.427Z,3.17
2023-01-02T06:02:48.215Z,3.16
2023-01-02T06:03:52.964Z,3.17
2023-01-02T06:04:54.480Z,3.12
2023-01-02T06:05:55.986Z,3.09
2023-01-02T06:06:57.526Z,3.07
2023-01-02T06:07:59.116Z,3.08
2023-01-02T06:09:02.015Z,3.11
2023-01-02T06:10:03.617Z,3.14
2023-01-02T06:11:06.121Z,3.18
2023-01-02T06:12:07.740Z,3.19
2023-01-02T06:13:09.292Z,3.20
2023-01-02T06:14:10.999Z,3.23
2023-01-02T06:15:12.535Z,3.22
2023-01-02T06:16:14.598Z,3.24
2023-01-02T06:17:16.384Z,3.27
2023-01-02T06:18:17.997Z,3.28
2023-01-02T06:19:19.612Z,3.26
2023-01-02T06:20:21.152Z,3.26
2023-01-02T06:21:22.941Z,3.29
2023-01-02T06:22:24.478Z,3.22
2023-01-02T06:23:26.280Z,3.07
2023-01-02T06:24:27.963Z,2.98
2023-01-02T06:25:29.488Z,3.04
2023-01-02T06:26:34.987Z,3.09
2023-01-02T06:27:36.861Z,3.18
2023-01-02T06:28:39.002Z,3.25
2023-01-02T06:29:40.555Z,3.31
2023-01-02T06:30:42.115Z,3.36
2023-01-02T06:31:50.840Z,3.40
2023-01-02T06:32:52.759Z,3.40
2023-01-02T06:33:59.072Z,3.39
2023-01-02T06:35:00.602Z,3.41
2023-01-02T06:36:05.032Z,3.43
2023-01-02T06:37:09.946Z,3.43
2023-01-02T06:38:11.975Z,3.41
2023-01-02T06:39:13.583Z,3.36
2023-01-02T06:40:15.475Z,3.36
2023-01-02T06:41:17.729Z,3.38
2023-01-02T06:42:19.245Z,3.37
2023-01-02T06:43:20.945Z,3.40
2023-01-02T06:44:22.442Z,3.43
2023-01-02T06:45:24.186Z,3.45
2023-01-02T06:46:25.868Z,3.43
2023-01-02T06:47:27.409Z,3.42
2023-01-02T06:48:29.039Z,3.35
2023-01-02T06:49:30.605Z,3.18
2023-01-02T06:50:35.065Z,2.99
2023-01-02T06:51:36.881Z,2.81
2023-01-02T06:52:38.377Z,2.56
2023-01-02T06:53:41.618Z,2.29
2023-01-02T06:54:43.228Z,2.13
2023-01-02T06:55:56.087Z,2.91
2023-01-02T06:56:57.647Z,3.06
2023-01-02T06:58:03.282Z,3.03
2023-01-02T06:59:11.907Z,2.98
2023-01-02T07:00:14.217Z,2.98
2023-01-02T07:01:18.492Z,2.88
2023-01-02T07:02:20.280Z,2.57
2023-01-02T07:03:21.969Z,2.41
2023-01-02T07:04:23.603Z,2.46
2023-01-02T07:05:25.166Z,2.34
2023-01-02T07:06:27.901Z,2.05
2023-01-02T07:07:29.502Z,1.95
2023-01-02T07:08:32.167Z,1.77
2023-01-02T07:09:33.723Z,1.65
2023-01-02T07:10:35.624Z,1.68
2023-01-02T07:11:38.532Z,1.83
2023-01-02T07:12:40.228Z,1.88
2023-01-02T07:13:43.285Z,1.73
2023-01-02T07:14:44.830Z,1.69
2023-01-02T07:15:46.418Z,1.73
2023-01-02T07:16:47.998Z,1.73
2023-01-02T07:17:49.727Z,1.75
2023-01-02T07:18:54.287Z,1.77
2023-01-02T07:20:00.989Z,1.66
2023-01-02T07:21:04.583Z,1.54
2023-01-02T07:22:06.103Z,1.43
2023-01-02T07:23:07.604Z,1.39
2023-01-02T07:24:15.895Z,1.42
2023-01-02T07:25:18.263Z,1.37
2023-01-02T07:26:21.292Z,1.36
2023-01-02T07:27:22.860Z,1.39
2023-01-02T07:28:25.198Z,1.40
2023-01-02T07:29:26.778Z,1.49
2023-01-02T07:30:28.525Z,1.64
2023-01-02T07:31:30.284Z,1.76
2023-01-02T07:32:31.842Z,1.92
2023-01-02T07:33:34.336Z,2.08
2023-01-02T07:34:35.845Z,2.16
2023-01-02T07:35:37.399Z,2.31
2023-01-02T07:36:38.999Z,2.56
2023-01-02T07:37:40.526Z,2.50
2023-01-02T07:38:42.556Z,2.41
2023-01-02T07:39:44.077Z,2.50
2023-01-02T07:40:45.602Z,2.55
2023-01-02T07:41:47.216Z,2.61
2023-01-02T07:42:48.752Z,2.65
2023-01-02T07:43:51.470Z,2.72
2023-01-02T07:44:52.991Z,2.67
2023-01-02T07:45:54.521Z,2.59
2023-01-02T07:46:56.188Z,2.55
2023-01-02T07:47:58.132Z,2.62
2023-01-02T07:48:59.662Z,2.73
2023-01-02T07:50:01.183Z,2.77
2023-01-02T07:51:04.755Z,2.86
2023-01-02T07:52:09.864Z,2.95
2023-01-02T07:53:11.482Z,3.04
2023-01-02T07:54:13.026Z,3.06
2023-01-02T07:55:14.644Z,3.06
2023-01-02T07:56:16.166Z,3.11
2023-01-02T07:57:17.770Z,3.10
2023-01-02T07:58:19.317Z,3.15
2023-01-02T07:59:20.859Z,3.13
2023-01-02T08:00:22.488Z,3.11
2023-01-02T08:01:24.154Z,3.12
2023-01-02T08:02:25.963Z,3.16
2023-01-02T08:03:28.215Z,3.18
2023-01-02T08:04:29.819Z,3.26
2023-01-02T08:05:34.188Z,3.34
2023-01-02T08:06:38.877Z,3.39
2023-01-02T08:07:44.806Z,3.41
2023-01-02T08:08:47.442Z,3.45
2023-01-02T08:09:49.105Z,3.48
2023-01-02T08:10:50.912Z,3.47
2023-01-02T08:11:52.457Z,3.57
2023-01-02T08:12:54.031Z,3.60
2023-01-02T08:13:55.577Z,3.60
2023-01-02T08:14:57.161Z,3.57
2023-01-02T08:15:58.710Z,3.51
2023-01-02T08:17:00.383Z,3.47
2023-01-02T08:18:01.944Z,3.57
2023-01-02T08:19:03.501Z,3.64
2023-01-02T08:20:08.244Z,3.54
2023-01-02T08:21:10.621Z,3.40
2023-01-02T08:22:12.201Z,3.36
2023-01-02T08:23:13.801Z,3.36
2023-01-02T08:24:15.373Z,3.40
2023-01-02T08:25:17.648Z,3.43
2023-01-02T08:26:20.616Z,3.40
2023-01-02T08:27:22.117Z,3.30
2023-01-02T08:28:23.665Z,3.26
2023-01-02T08:29:25.227Z,3.24
2023-01-02T08:30:26.816Z,3.27
2023-01-02T08:31:28.453Z,3.36
2023-01-02T08:32:30.032Z,3.43
2023-01-02T08:33:31.579Z,3.50
2023-01-02T08:34:34.662Z,3.54
2023-01-02T08:35:38.964Z,3.62
2023-01-02T08:36:41.675Z,3.68
2023-01-02T08:37:48.432Z,3.76
2023-01-02T08:38:51.995Z,3.77
2023-01-02T08:39:53.564Z,3.78
2023-01-02T08:40:58.061Z,3.81
2023-01-02T08:41:59.595Z,3.80
2023-01-02T08:43:01.137Z,3.77
2023-01-02T08:44:03.089Z,3.54
2023-01-02T08:45:05.084Z,3.22
2023-01-02T08:46:08.282Z,3.02
2023-01-02T08:47:09.882Z,3.04
2023-01-02T08:48:20.213Z,2.97
2023-01-02T08:49:23.225Z,2.88
2023-01-02T08:50:24.921Z,2.76
2023-01-02T08:51:27.485Z,2.80
2023-01-02T08:52:29.084Z,2.92
2023-01-02T08:53:30.745Z,3.03
2023-01-02T08:54:32.662Z,3.13
2023-01-02T08:55:34.202Z,3.15
2023-01-02T08:56:37.663Z,3.24
2023-01-02T08:57:39.573Z,3.30
2023-01-02T08:58:41.091Z,3.36
2023-01-02T08:59:42.672Z,3.44
2023-01-02T09:00:44.232Z,3.49
2023-01-02T09:01:45.973Z,3.54
2023-01-02T09:02:47.849Z,3.63
2023-01-02T09:03:49.937Z,3.65
2023-01-02T09:04:51.527Z,3.67
2023-01-02T09:05:55.260Z,3.67
2023-01-02T09:06:56.773Z,3.69
2023-01-02T09:07:58.772Z,3.76
2023-01-02T09:09:04.282Z,3.77
2023-01-02T09:10:10.105Z,3.80
2023-01-02T09:11:14.699Z,3.83
2023-01-02T09:12:16.216Z,3.89
2023-01-02T09:13:17.788Z,3.79
2023-01-02T09:14:21.395Z,3.80
2023-01-02T09:15:22.950Z,3.86
2023-01-02T09:16:25.187Z,3.89
2023-01-02T09:17:26.767Z,3.88
2023-01-02T09:18:29.693Z,3.91
2023-01-02T09:19:31.309Z,3.92
2023-01-02T09:20:32.826Z,3.84
2023-01-02T09:21:35.100Z,3.88
2023-01-02T09:22:36.880Z,3.95
2023-01-02T09:23:38.407Z,4.01
2023-01-02T09:24:39.995Z,4.09
2023-01-02T09:25:41.559Z,4.07
2023-01-02T09:26:43.400Z,4.05
2023-01-02T09:27:44.948Z,4.09
2023-01-02T09:28:46.911Z,4.08
2023-01-02T09:29:48.543Z,4.02
2023-01-02T09:30:50.158Z,4.03
2023-01-02T09:31:51.818Z,4.09
2023-01-02T09:32:54.260Z,4.13
2023-01-02T09:33:55.807Z,4.01
2023-01-02T09:34:57.513Z,3.79
2023-01-02T09:36:02.997Z,3.90
2023-01-02T09:37:04.522Z,3.78
2023-01-02T09:38:06.074Z,3.47
2023-01-02T09:39:07.691Z,3.32
2023-01-02T09:40:09.980Z,3.23
2023-01-02T09:41:46.584Z,3.11
2023-01-02T09:42:51.024Z,2.88
2023-01-02T09:43:57.525Z,2.78
2023-01-02T09:45:08.173Z,2.66
2023-01-02T09:46:27.532Z,2.60
2023-01-02T09:47:29.859Z,2.67
2023-01-02T09:48:35.348Z,2.64
2023-01-02T09:49:46.437Z,2.64
2023-01-02T09:50:49.784Z,2.70
2023-01-02T09:51:51.444Z,2.70
2023-01-02T09:52:59.650Z,2.61
2023-01-02T09:54:01.688Z,2.59
2023-01-02T09:55:04.470Z,2.61
2023-01-02T09:56:22.396Z,2.69
2023-01-02T09:57:34.631Z,2.74
2023-01-02T09:59:01.223Z,2.73
2023-01-02T10:00:15.991Z,2.77
2023-01-02T10:02:03.780Z,2.81
2023-01-02T10:03:19.132Z,2.69
2023-01-02T10:04:38.805Z,2.65
2023-01-02T10:05:43.519Z,2.64
2023-01-02T10:06:55.642Z,2.65
2023-01-02T10:08:05.858Z,2.58
2023-01-02T10:09:27.512Z,2.54
2023-01-02T10:10:42.978Z,2.57
2023-01-02T10:11:44.506Z,2.73
2023-01-02T10:13:10.744Z,2.87
2023-01-02T10:14:37.609Z,3.02
2023-01-02T10:15:47.596Z,3.09
2023-01-02T10:16:53.072Z,3.06
2023-01-02T10:18:04.448Z,3.14
2023-01-02T10:19:15.584Z,3.29
2023-01-02T10:20:24.009Z,3.41
2023-01-02T10:21:35.961Z,3.39
2023-01-02T10:22:45.405Z,3.33
2023-01-02T10:24:08.056Z,3.30
2023-01-02T10:25:26.753Z,3.20
2023-01-02T10:26:35.908Z,3.31
2023-01-02T10:27:43.470Z,3.37
2023-01-02T10:29:03.667Z,3.49
2023-01-02T10:30:21.066Z,3.59
2023-01-02T10:31:22.674Z,3.71
2023-01-02T10:32:26.275Z,3.79
2023-01-02T10:33:31.150Z,3.85
2023-01-02T10:34:57.577Z,3.86
2023-01-02T10:36:02.706Z,3.91
2023-01-02T10:37:14.312Z,3.90
2023-01-02T10:38:18.611Z,3.94
2023-01-02T10:39:27.886Z,3.94
2023-01-02T10:40:31.774Z,3.96
2023-01-02T10:41:35.247Z,3.91
2023-01-02T10:42:36.927Z,3.77
2023-01-02T10:43:38.592Z,3.88
2023-01-02T10:44:41.469Z,4.04
2023-01-02T10:45:43.595Z,4.10
2023-01-02T10:46:45.186Z,4.13
2023-01-02T10:47:46.816Z,4.00
2023-01-02T10:48:52.239Z,3.91
2023-01-02T10:49:54.470Z,3.80
2023-01-02T10:51:00.941Z,3.73
2023-01-02T10:52:13.272Z,3.63
2023-01-02T10:53:28.968Z,3.61
2023-01-02T10:54:30.566Z,3.70
2023-01-02T10:55:37.218Z,3.78
2023-01-02T10:56:40.567Z,3.84
2023-01-02T10:57:51.448Z,3.74
2023-01-02T10:58:56.033Z,3.70
2023-01-02T11:00:00.035Z,3.61
2023-01-02T11:01:13.588Z,3.63
2023-01-02T11:02:49.458Z,3.56
2023-01-02T11:03:57.705Z,3.61
2023-01-02T11:05:01.861Z,3.76
2023-01-02T11:06:25.719Z,3.92
2023-01-02T11:07:26.770Z,4.08
2023-01-02T11:08:39.435Z,4.22
2023-01-02T11:09:55.377Z,4.34
2023-01-02T11:10:57.013Z,4.47
2023-01-02T11:12:08.635Z,4.58
2023-01-02T11:13:16.013Z,4.73
2023-01-02T11:14:22.023Z,4.80
2023-01-02T11:15:30.986Z,4.76
2023-01-02T11:16:38.315Z,4.48
2023-01-02T11:17:44.418Z,4.53
2023-01-02T11:18:54.955Z,4.64
2023-01-02T11:19:57.324Z,4.72
2023-01-02T11:21:04.640Z,4.81
2023-01-02T11:22:06.364Z,4.72
2023-01-02T11:23:15.212Z,4.80
2023-01-02T11:24:25.891Z,4.90
2023-01-02T11:25:32.699Z,4.96
2023-01-02T11:26:38.370Z,4.88
2023-01-02T11:27:44.174Z,4.79
2023-01-02T11:28:46.815Z,4.69
2023-01-02T11:29:50.584Z,4.57
2023-01-02T11:31:00.619Z,4.48
2023-01-02T11:32:03.897Z,4.36
2023-01-02T11:33:13.480Z,4.28
2023-01-02T11:34:30.375Z,4.27
2023-01-02T11:35:39.302Z,4.47
2023-01-02T11:36:44.193Z,4.60
2023-01-02T11:37:52.491Z,4.65
2023-01-02T11:38:58.949Z,4.78
2023-01-02T11:40:02.175Z,4.89
2023-01-02T11:41:03.872Z,4.80
2023-01-02T11:42:45.528Z,4.76
2023-01-02T11:44:01.042Z,4.81
2023-01-02T11:45:08.903Z,4.92
2023-01-02T11:46:19.559Z,4.83
2023-01-02T11:47:38.229Z,4.69
2023-01-02T11:48:40.128Z,4.59
2023-01-02T11:49:48.787Z,4.49
2023-01-02T11:50:50.935Z,4.45
2023-01-02T11:52:17.518Z,4.36
2023-01-02T11:53:25.449Z,4.44
2023-01-02T11:54:35.461Z,4.54
2023-01-02T11:55:56.848Z,4.59
2023-01-02T11:56:59.545Z,4.53
2023-01-02T11:58:14.979Z,4.62
2023-01-02T11:59:24.916Z,4.66
2023-01-02T12:00:32.861Z,4.64
2023-01-02T12:01:53.262Z,4.77
2023-01-02T12:03:06.707Z,4.92
2023-01-02T12:04:08.650Z,5.02
2023-01-02T12:05:15.847Z,4.96
2023-01-02T12:06:39.599Z,5.00
2023-01-02T12:08:00.083Z,5.02
2023-01-02T12:09:14.477Z,4.97
2023-01-02T12:10:37.000Z,5.01
2023-01-02T12:12:10.827Z,5.17
2023-01-02T12:13:31.481Z,5.13
2023-01-02T12:14:58.015Z,5.11
2023-01-02T12:16:37.850Z,5.12
2023-01-02T12:18:06.647Z,5.20
2023-01-02T12:19:14.287Z,5.33
2023-01-02T12:20:49.663Z,5.45
2023-01-02T12:21:58.393Z,5.56
2023-01-02T12:23:21.581Z,5.65
2023-01-02T12:24:46.380Z,5.61
2023-01-02T12:26:12.774Z,5.62
2023-01-02T12:27:38.348Z,5.69
2023-01-02T12:28:55.349Z,5.69
2023-01-02T12:30:01.936Z,5.69
2023-01-02T12:31:24.596Z,5.76
2023-01-02T12:32:41.187Z,5.90
2023-01-02T12:33:48.149Z,6.03
2023-01-02T12:35:03.902Z,6.10
2023-01-02T12:36:28.900Z,6.09
2023-01-02T12:37:38.491Z,6.11
2023-01-02T12:38:45.724Z,6.10
2023-01-02T12:40:18.057Z,6.18
2023-01-02T12:42:00.779Z,6.32
2023-01-02T12:43:11.479Z,6.47
2023-01-02T12:44:16.132Z,6.55
2023-01-02T12:45:26.880Z,6.54
2023-01-02T12:46:49.653Z,6.51
2023-01-02T12:48:26.799Z,6.63
2023-01-02T12:49:48.854Z,6.72
2023-01-02T12:51:19.588Z,6.73
2023-01-02T12:52:58.165Z,6.79
2023-01-02T12:54:32.971Z,6.88
2023-01-02T12:55:49.192Z,6.94
2023-01-02T12:57:02.933Z,6.93
2023-01-02T12:58:23.335Z,7.01
2023-01-02T12:59:39.703Z,7.07
2023-01-02T13:00:44.221Z,7.05
2023-01-02T13:01:58.634Z,7.00
2023-01-02T13:03:38.590Z,7.15
2023-01-02T13:04:46.820Z,7.20
2023-01-02T13:05:53.886Z,7.27
2023-01-02T13:07:01.961Z,7.29
2023-01-02T13:08:13.809Z,7.31
2023-01-02T13:09:27.352Z,7.42
2023-01-02T13:10:30.233Z,7.42
2023-01-02T13:11:40.768Z,7.37
2023-01-02T13:12:44.129Z,7.37
2023-01-02T13:13:45.890Z,7.42
2023-01-02T13:14:54.710Z,7.41
2023-01-02T13:16:03.424Z,7.41
2023-01-02T13:17:44.488Z,7.46
2023-01-02T13:19:01.205Z,7.49
2023-01-02T13:20:10.832Z,7.48
2023-01-02T13:21:21.234Z,7.51
2023-01-02T13:22:28.461Z,7.53
2023-01-02T13:23:40.852Z,7.53
2023-01-02T13:24:43.617Z,7.54
2023-01-02T13:25:49.558Z,7.55
2023-01-02T13:26:53.348Z,7.56
2023-01-02T13:27:56.886Z,7.58
2023-01-02T13:29:18.694Z,7.59
2023-01-02T13:30:35.508Z,7.58
2023-01-02T13:31:48.066Z,7.58
2023-01-02T13:32:50.062Z,7.59
2023-01-02T13:33:54.676Z,7.61
2023-01-02T13:35:00.280Z,7.67
2023-01-02T13:36:17.401Z,7.75
2023-01-02T13:37:23.716Z,7.84
2023-01-02T13:38:29.170Z,7.88
2023-01-02T13:39:46.499Z,7.95
2023-01-02T13:40:55.910Z,7.97
2023-01-02T13:42:19.701Z,7.96
2023-01-02T13:43:27.286Z,7.97
2023-01-02T13:44:34.949Z,7.93
2023-01-02T13:45:44.885Z,7.91
2023-01-02T13:47:03.267Z,7.91
2023-01-02T13:48:17.721Z,7.95
2023-01-02T13:49:21.389Z,7.96
2023-01-02T13:50:30.551Z,7.93
2023-01-02T13:51:35.582Z,7.90
2023-01-02T13:52:38.902Z,7.91
2023-01-02T13:53:47.445Z,7.90
2023-01-02T13:55:25.362Z,7.89
2023-01-02T13:56:28.992Z,7.91
2023-01-02T13:57:32.392Z,7.92
2023-01-02T13:58:41.685Z,7.99
2023-01-02T14:00:04.589Z,8.06
2023-01-02T14:01:37.995Z,8.05
2023-01-02T14:02:39.773Z,8.02
2023-01-02T14:03:41.552Z,8.00
2023-01-02T14:04:43.869Z,7.99
2023-01-02T14:06:00.642Z,8.00
2023-01-02T14:07:27.561Z,8.00
2023-01-02T14:08:33.422Z,8.00
2023-01-02T14:10:07.946Z,8.01
2023-01-02T14:11:15.373Z,8.02
2023-01-02T14:12:17.014Z,8.04
2023-01-02T14:13:27.873Z,8.07
2023-01-02T14:14:43.124Z,8.11
2023-01-02T14:16:15.605Z,8.23
2023-01-02T14:17:29.208Z,8.34
2023-01-02T14:18:31.043Z,8.42
2023-01-02T14:19:33.159Z,8.44
2023-01-02T14:20:38.552Z,8.46
2023-01-02T14:21:51.517Z,8.47
2023-01-02T14:22:58.626Z,8.45
2023-01-02T14:24:16.935Z,8.40
2023-01-02T14:25:21.568Z,8.34
2023-01-02T14:26:25.523Z,8.47
2023-01-02T14:27:33.698Z,8.59
2023-01-02T14:28:39.368Z,8.61
2023-01-02T14:29:50.920Z,8.61
2023-01-02T14:30:56.340Z,8.59
2023-01-02T14:32:09.844Z,8.54
2023-01-02T14:33:21.772Z,8.55
2023-01-02T14:34:24.889Z,8.51
2023-01-02T14:35:33.263Z,8.44
2023-01-02T14:36:41.398Z,8.40
2023-01-02T14:37:52.096Z,8.45
2023-01-02T14:38:56.508Z,8.53
2023-01-02T14:40:38.785Z,8.62
2023-01-02T14:42:10.775Z,8.69
2023-01-02T14:43:32.698Z,8.71
2023-01-02T14:44:47.965Z,8.70
2023-01-02T14:46:04.802Z,8.70
2023-01-02T14:47:12.518Z,8.66
2023-01-02T14:48:21.089Z,8.62
2023-01-02T14:49:27.277Z,8.66
2023-01-02T14:50:33.423Z,8.72
2023-01-02T14:51:43.451Z,8.74
2023-01-02T14:52:51.818Z,8.74
2023-01-02T14:54:14.005Z,8.74
2023-01-02T14:55:20.145Z,8.76